DW6936 Weather Reports


Display with metric or nautical units.
time (UTC)temp
F
wind
direction
speed
MPH
gust
MPH
rain 1hr
in
rain 24hr
in
rain mn
in
humidity
%
barometer
mb
20170626190933 68 164 4.0 11.0 0.00 0.00 0.00 72 1011.7
20170626185933 67 154 8.0 9.0 0.00 0.00 0.00 73 1011.7
20170626175931 67 196 7.0 13.0 0.00 0.00 0.00 73 1011.2
20170626174931 67 219 9.0 13.0 0.00 0.00 0.00 75 1011.2
20170626171930 66 139 5.0 12.0 0.00 0.00 0.00 74 1011.3
20170626170930 65 182 5.0 11.0 0.00 0.00 0.00 74 1011.5
20170626165930 66 197 5.0 12.0 0.00 0.00 0.00 72 1011.5
20170626162929 65 182 10.0 11.0 0.00 0.00 0.00 71 1011.1
20170626152927 62 134 4.0 9.0 0.00 0.00 0.00 74 1011.0
20170626151927 62 168 2.0 10.0 0.00 0.00 0.00 75 1010.8
20170626145927 61 124 7.0 11.0 0.00 0.00 0.00 75 1010.6
20170626141925 59 126 5.0 12.0 0.00 0.00 0.00 79 1010.5
20170626135925 59 130 6.0 8.0 0.00 0.00 0.00 78 1010.6
20170626134924 59 133 4.0 9.0 0.00 0.00 0.00 78 1010.5
20170626132924 59 144 5.0 6.0 0.00 0.00 0.00 77 1010.5
20170626124923 58 147 0.0 3.0 0.00 0.00 0.00 81 1010.2
20170626123922 58 147 2.0 4.0 0.00 0.00 0.00 79 1010.1
20170626120922 59 146 0.0 2.0 0.00 0.00 0.00 80 1009.8
20170626115921 59 146 1.0 4.0 0.00 0.00 0.00 77 1009.6
20170626110920 61 142 0.0 2.0 0.00 0.00 0.00 72 1009.7
20170626103919 62 149 3.0 5.0 0.00 0.00 0.00 71 1009.2
20170626102919 62 149 0.0 3.0 0.00 0.00 0.00 72 1009.2
20170626100918 62 154 5.0 6.0 0.00 0.00 0.00 73 1008.7
20170626095947 63 160 3.0 4.0 0.00 0.00 0.00 72 1008.9
20170626094917 63 164 4.0 5.0 0.00 0.00 0.00 72 1008.9
20170626091912 64 124 3.0 5.0 0.00 0.00 0.00 75 1008.7
20170626090942 64 124 3.0 5.0 0.00 0.00 0.00 74 1008.5
20170626085942 64 123 4.0 4.0 0.00 0.00 0.00 74 1008.4
20170626084942 64 123 2.0 6.0 0.00 0.00 0.00 74 1008.2
20170626082941 65 121 1.0 4.0 0.00 0.00 0.00 74 1007.8
20170626073939 67 121 1.0 5.0 0.00 0.00 0.00 75 1008.5
20170626072939 66 117 3.0 5.0 0.00 0.00 0.00 75 1008.5
20170626071939 66 75 2.0 5.0 0.00 0.00 0.00 78 1007.4
20170626065939 65 6 0.0 5.0 0.00 0.00 0.00 79 1008.2
20170626062938 66 329 0.0 1.0 0.00 0.00 0.00 77 1008.4
20170626060937 66 329 4.0 5.0 0.00 0.00 0.00 77 1008.2
20170626055937 67 265 2.0 5.0 0.00 0.00 0.00 81 1008.5
20170626053936 68 279 0.0 0.0 0.00 0.00 0.00 78 1007.8
20170626052936 68 279 0.0 0.0 0.00 0.00 0.00 82 1007.6
20170626050936 69 279 0.0 0.0 0.00 0.00 0.00 78 1007.3
20170626044935 69 275 0.0 0.0 0.00 0.00 0.00 78 1007.3
20170626043934 69 275 0.0 0.0 0.00 0.00 0.00 79 1007.1
20170626042934 69 275 0.0 0.0 0.00 0.00 0.00 80 1007.0
20170626041934 70 275 0.0 0.0 0.00 0.00 0.00 81 1007.0
20170626034933 71 275 0.0 0.0 0.00 0.00 0.00 81 1007.3
20170626033933 71 275 0.0 0.0 0.00 0.00 0.00 80 1007.5
20170626032933 71 275 0.0 0.0 0.00 0.00 0.00 78 1007.5
20170626031932 72 275 0.0 3.0 0.00 0.00 0.00 78 1007.6
20170626025932 72 275 0.0 2.0 0.00 0.00 0.00 75 1007.5
20170626023931 72 275 0.0 0.0 0.00 0.00 0.00 74 1007.6
20170626022931 71 275 0.0 0.0 0.00 0.00 0.00 74 1007.6
20170626021931 71 275 0.0 1.0 0.00 0.00 0.00 76 1007.7
20170626020931 70 275 0.0 2.0 0.00 0.00 0.00 78 1007.7
20170626011929 73 270 0.0 5.0 0.00 0.00 0.00 72 1007.9
20170626010928 74 303 2.0 5.0 0.00 0.00 0.00 71 1008.1
20170626005928 76 295 2.0 6.0 0.00 0.00 0.00 67 1008.3
20170626003928 80 289 2.0 4.0 0.00 0.00 0.00 59 1008.3
20170626002927 81 296 2.0 4.0 0.00 0.00 0.00 58 1008.3
20170626000927 80 256 5.0 5.0 0.00 0.00 0.00 60 1008.6
20170625235927 81 312 3.0 5.0 0.00 0.00 0.00 59 1008.6
20170625234926 80 231 3.0 7.0 0.00 0.00 0.00 56 1008.6
20170625233926 80 227 4.0 5.0 0.00 0.00 0.00 59 1008.7
20170625232926 80 253 1.0 5.0 0.00 0.00 0.00 60 1008.9
20170625230926 82 257 6.0 7.0 0.00 0.00 0.00 61 1009.0
20170625214923 80 275 3.0 6.0 0.00 0.00 0.00 60 1009.7
20170625213923 79 241 4.0 8.0 0.00 0.00 0.00 61 1009.9
20170625212923 79 230 5.0 6.0 0.00 0.00 0.00 60 1010.0
20170625210934 78 247 3.0 8.0 0.00 0.00 0.00 65 1010.3
20170625202934 78 265 3.0 8.0 0.00 0.00 0.00 63 1010.6
20170625201933 77 237 4.0 9.0 0.00 0.00 0.00 63 1010.6
20170625200933 76 237 4.0 8.0 0.00 0.00 0.00 63 1010.6
20170625194932 76 252 3.0 6.0 0.00 0.00 0.00 67 1011.0
20170625193932 75 275 5.0 6.0 0.00 0.00 0.00 70 1011.2
20170625192932 74 250 4.0 7.0 0.00 0.00 0.00 72 1011.3
20170625191931 73 275 2.0 6.0 0.00 0.00 0.00 73 1011.3